MST,Max TemperatureF,Mean TemperatureF,Min TemperatureF,Max Dew PointF,MeanDew PointF,Min DewpointF,Max Humidity, Mean Humidity, Min Humidity, Max Sea Level PressureIn, Mean Sea Level PressureIn, Min Sea Level PressureIn, Max VisibilityMiles, Mean VisibilityMiles, Min VisibilityMiles, Max Wind SpeedMPH, Mean Wind SpeedMPH, Max Gust SpeedMPH,PrecipitationIn, CloudCover, Events, WindDirDegrees
2013-1-1,26,12,-5,14,8,-13,100,74,54,30.18,30.06,29.98,10,9,0,9,5,,0.00,5,,232
2013-1-2,24,5,-14,7,-6,-18,100,73,43,30.21,30.16,30.09,10,10,10,10,6,,0.00,0,,8
2013-1-3,23,4,-14,5,-7,-27,100,67,39,30.32,30.26,30.21,10,10,10,12,6,,0.00,0,,3
2013-1-4,24,4,-16,5,-8,-27,100,66,36,30.27,30.19,30.11,10,10,4,10,5,,0.00,0,,4
2013-1-5,28,10,-9,9,-4,-18,92,67,43,30.37,30.29,30.17,10,10,10,12,7,,0.00,0,,6
2013-1-6,35,15,-5,10,1,-15,100,65,32,30.38,30.28,30.15,10,10,10,10,5,,0.00,0,,17
2013-1-7,33,17,1,10,3,-6,92,64,38,30.15,30.06,29.99,10,10,10,15,7,,0.00,1,,7
2013-1-8,37,16,-5,12,3,-11,92,64,35,30.29,30.09,29.99,10,10,10,17,6,24,0.00,0,,16
2013-1-9,39,20,1,16,6,-8,100,65,33,30.45,30.32,30.20,10,10,10,10,4,,0.00,0,,14
2013-1-10,42,22,1,18,8,-6,92,63,27,30.19,29.96,29.74,10,10,10,9,4,,0.00,2,,39
2013-1-11,33,14,-5,21,6,-22,85,56,36,29.85,29.72,29.54,10,10,1,29,12,38,0.00,5,,253
2013-1-12,19,2,-14,0,-10,-24,100,62,38,29.88,29.83,29.78,10,10,10,9,5,,0.00,2,,356
2013-1-13,19,2,-14,1,-7,-27,100,65,42,29.95,29.91,29.87,10,10,10,10,4,,0.00,5,,347
2013-1-14,21,8,-5,12,2,-11,92,74,54,29.98,29.92,29.86,10,9,1,14,5,,0.00,6,,343
2013-1-15,17,3,-11,1,-6,-18,100,68,42,30.26,30.10,29.97,10,10,4,16,7,20,0.00,4,,7
2013-1-16,35,14,-7,12,1,-17,100,67,38,30.42,30.32,30.26,10,10,10,10,5,,0.00,0,,2
2013-1-17,42,22,1,19,8,-6,92,68,36,30.53,30.45,30.41,10,10,10,8,5,,0.00,0,,3
2013-1-18,39,20,1,18,9,-2,92,71,42,30.43,30.35,30.29,10,10,10,9,6,,0.00,0,,359
2013-1-19,42,22,1,18,8,-6,100,66,33,30.41,30.35,30.30,10,10,10,13,6,,0.00,0,,7
2013-1-20,39,20,0,16,6,-8,92,67,33,30.37,30.30,30.22,10,10,10,16,8,,0.00,0,,3
2013-1-21,42,21,0,14,6,-8,100,62,27,30.35,30.29,30.24,10,10,10,13,6,,0.00,0,,7
2013-1-22,46,24,3,16,9,-2,100,61,25,30.38,30.33,30.30,10,10,10,10,6,,0.00,0,,360
2013-1-23,48,26,3,16,9,-2,85,59,23,30.46,30.39,30.35,10,10,10,13,6,,0.00,0,,13
2013-1-24,53,30,6,25,15,1,85,58,30,30.37,30.31,30.23,10,10,10,16,7,23,0.00,1,,319
2013-1-25,46,36,26,34,28,21,93,74,61,30.36,30.29,30.23,10,10,10,12,4,,0.00,3,,112
2013-1-26,42,33,24,39,32,23,100,89,75,30.25,30.08,29.95,10,10,5,31,3,37,0.15,6,,42
2013-1-27,46,39,32,36,33,27,93,78,57,30.01,29.97,29.94,10,10,10,18,8,26,0.08,7,,258
2013-1-28,44,36,28,34,30,23,93,82,57,29.96,29.84,29.76,10,9,0,30,7,40,0.07,8,,219
2013-1-29,26,19,6,23,15,-6,93,79,56,29.89,29.69,29.59,10,8,0,18,8,20,0.00,8,,243
2013-1-30,30,12,-5,16,5,-15,100,68,47,30.16,30.04,29.89,10,10,10,21,5,23,0.00,2,,210
2013-1-31,39,24,10,21,16,7,92,71,45,30.28,30.22,30.15,10,10,10,13,5,,0.01,1,,135